sensor_id;sensor_type;location;lat;lon;timestamp;temperature;humidity
51793;DHT22;37850;53.178;6.376;2024-01-06T00:01:34;2.00;99.90
51793;DHT22;37850;53.178;6.376;2024-01-06T00:04:00;2.00;99.90
51793;DHT22;37850;53.178;6.376;2024-01-06T00:06:25;2.00;99.90
51793;DHT22;37850;53.178;6.376;2024-01-06T00:08:51;2.00;99.90
51793;DHT22;37850;53.178;6.376;2024-01-06T00:11:22;2.00;99.90
51793;DHT22;37850;53.178;6.376;2024-01-06T00:13:48;2.00;99.90
51793;DHT22;37850;53.178;6.376;2024-01-06T00:16:17;2.00;99.90
51793;DHT22;37850;53.178;6.376;2024-01-06T00:18:43;2.00;99.90
51793;DHT22;37850;53.178;6.376;2024-01-06T00:21:09;1.90;99.90
51793;DHT22;37850;53.178;6.376;2024-01-06T00:23:35;2.40;99.90
51793;DHT22;37850;53.178;6.376;2024-01-06T00:26:00;1.90;99.90
51793;DHT22;37850;53.178;6.376;2024-01-06T00:28:27;2.10;99.90
51793;DHT22;37850;53.178;6.376;2024-01-06T00:30:53;1.90;99.90
51793;DHT22;37850;53.178;6.376;2024-01-06T00:33:19;1.90;99.90
51793;DHT22;37850;53.178;6.376;2024-01-06T00:35:44;1.90;99.90
51793;DHT22;37850;53.178;6.376;2024-01-06T00:38:10;1.90;99.90
51793;DHT22;37850;53.178;6.376;2024-01-06T00:40:36;1.90;99.90
51793;DHT22;37850;53.178;6.376;2024-01-06T00:43:02;1.90;99.90
51793;DHT22;37850;53.178;6.376;2024-01-06T00:45:28;1.80;99.90
51793;DHT22;37850;53.178;6.376;2024-01-06T00:47:54;1.90;99.90
51793;DHT22;37850;53.178;6.376;2024-01-06T00:50:19;1.80;99.90
51793;DHT22;37850;53.178;6.376;2024-01-06T00:52:45;1.80;99.90
51793;DHT22;37850;53.178;6.376;2024-01-06T00:55:11;2.80;99.90
51793;DHT22;37850;53.178;6.376;2024-01-06T00:57:37;1.80;99.90
51793;DHT22;37850;53.178;6.376;2024-01-06T01:00:04;2.70;99.90
51793;DHT22;37850;53.178;6.376;2024-01-06T01:02:31;1.80;99.90
51793;DHT22;37850;53.178;6.376;2024-01-06T01:04:57;1.80;99.90
51793;DHT22;37850;53.178;6.376;2024-01-06T01:07:23;1.80;99.90
51793;DHT22;37850;53.178;6.376;2024-01-06T01:09:49;1.80;99.90
51793;DHT22;37850;53.178;6.376;2024-01-06T01:12:15;1.80;99.90
51793;DHT22;37850;53.178;6.376;2024-01-06T01:14:40;1.80;99.90
51793;DHT22;37850;53.178;6.376;2024-01-06T01:17:06;1.80;99.90
51793;DHT22;37850;53.178;6.376;2024-01-06T01:19:32;1.70;99.90
51793;DHT22;37850;53.178;6.376;2024-01-06T01:21:57;1.70;99.90
51793;DHT22;37850;53.178;6.376;2024-01-06T01:24:23;1.80;99.90
51793;DHT22;37850;53.178;6.376;2024-01-06T01:26:49;1.70;99.90
51793;DHT22;37850;53.178;6.376;2024-01-06T01:29:16;1.80;99.90
51793;DHT22;37850;53.178;6.376;2024-01-06T01:31:41;1.70;99.90
51793;DHT22;37850;53.178;6.376;2024-01-06T01:34:08;1.70;99.90
51793;DHT22;37850;53.178;6.376;2024-01-06T01:36:33;1.70;99.90
51793;DHT22;37850;53.178;6.376;2024-01-06T01:38:59;1.70;99.90
51793;DHT22;37850;53.178;6.376;2024-01-06T01:41:25;1.60;99.90
51793;DHT22;37850;53.178;6.376;2024-01-06T01:43:51;1.60;99.90
51793;DHT22;37850;53.178;6.376;2024-01-06T01:46:27;1.60;99.90
51793;DHT22;37850;53.178;6.376;2024-01-06T01:48:58;1.60;99.90
51793;DHT22;37850;53.178;6.376;2024-01-06T01:51:29;1.60;99.90
51793;DHT22;37850;53.178;6.376;2024-01-06T01:54:00;1.60;99.90
51793;DHT22;37850;53.178;6.376;2024-01-06T01:56:26;1.50;99.90
51793;DHT22;37850;53.178;6.376;2024-01-06T01:58:53;1.50;99.90
51793;DHT22;37850;53.178;6.376;2024-01-06T02:01:19;1.50;99.90
51793;DHT22;37850;53.178;6.376;2024-01-06T02:03:45;1.50;99.90
51793;DHT22;37850;53.178;6.376;2024-01-06T02:06:11;1.50;99.90
51793;DHT22;37850;53.178;6.376;2024-01-06T02:08:38;2.50;99.90
51793;DHT22;37850;53.178;6.376;2024-01-06T02:11:04;1.50;99.90
51793;DHT22;37850;53.178;6.376;2024-01-06T02:13:34;1.50;99.90
51793;DHT22;37850;53.178;6.376;2024-01-06T02:16:04;1.50;99.90
51793;DHT22;37850;53.178;6.376;2024-01-06T02:18:31;1.50;99.90
51793;DHT22;37850;53.178;6.376;2024-01-06T02:20:58;1.50;99.90
51793;DHT22;37850;53.178;6.376;2024-01-06T02:23:24;2.50;99.90
51793;DHT22;37850;53.178;6.376;2024-01-06T02:25:51;1.40;99.90
51793;DHT22;37850;53.178;6.376;2024-01-06T02:28:16;1.40;99.90
51793;DHT22;37850;53.178;6.376;2024-01-06T02:30:43;1.80;99.90
51793;DHT22;37850;53.178;6.376;2024-01-06T02:33:08;1.40;99.90
51793;DHT22;37850;53.178;6.376;2024-01-06T02:35:35;1.30;99.90
51793;DHT22;37850;53.178;6.376;2024-01-06T02:38:00;1.30;99.90
51793;DHT22;37850;53.178;6.376;2024-01-06T02:40:26;1.30;99.90
51793;DHT22;37850;53.178;6.376;2024-01-06T02:42:52;1.30;99.90
51793;DHT22;37850;53.178;6.376;2024-01-06T02:45:17;1.40;99.90
51793;DHT22;37850;53.178;6.376;2024-01-06T02:47:43;1.50;99.90
51793;DHT22;37850;53.178;6.376;2024-01-06T02:50:09;1.30;99.90
51793;DHT22;37850;53.178;6.376;2024-01-06T02:52:35;2.30;99.90
51793;DHT22;37850;53.178;6.376;2024-01-06T02:55:00;1.30;99.90
51793;DHT22;37850;53.178;6.376;2024-01-06T02:57:28;1.30;99.90
51793;DHT22;37850;53.178;6.376;2024-01-06T02:59:54;1.30;99.90
51793;DHT22;37850;53.178;6.376;2024-01-06T03:02:19;1.30;99.90
51793;DHT22;37850;53.178;6.376;2024-01-06T03:04:45;1.30;99.90
51793;DHT22;37850;53.178;6.376;2024-01-06T03:07:11;1.20;99.90
51793;DHT22;37850;53.178;6.376;2024-01-06T03:09:37;1.20;99.90
51793;DHT22;37850;53.178;6.376;2024-01-06T03:12:07;1.20;99.90
51793;DHT22;37850;53.178;6.376;2024-01-06T03:14:37;1.20;99.90
51793;DHT22;37850;53.178;6.376;2024-01-06T03:17:03;1.20;99.90
51793;DHT22;37850;53.178;6.376;2024-01-06T03:19:30;1.20;99.90
51793;DHT22;37850;53.178;6.376;2024-01-06T03:21:56;1.30;99.90
51793;DHT22;37850;53.178;6.376;2024-01-06T03:24:23;1.20;99.90
51793;DHT22;37850;53.178;6.376;2024-01-06T03:26:49;1.20;99.90
51793;DHT22;37850;53.178;6.376;2024-01-06T03:29:15;1.20;99.90
51793;DHT22;37850;53.178;6.376;2024-01-06T03:31:44;1.20;99.90
51793;DHT22;37850;53.178;6.376;2024-01-06T03:34:11;1.20;99.90
51793;DHT22;37850;53.178;6.376;2024-01-06T03:36:37;1.20;99.90
51793;DHT22;37850;53.178;6.376;2024-01-06T03:39:03;1.20;99.90
51793;DHT22;37850;53.178;6.376;2024-01-06T03:41:29;1.20;99.90
51793;DHT22;37850;53.178;6.376;2024-01-06T03:43:55;1.20;99.90
51793;DHT22;37850;53.178;6.376;2024-01-06T03:46:21;1.60;99.90
51793;DHT22;37850;53.178;6.376;2024-01-06T03:48:47;1.10;99.90
51793;DHT22;37850;53.178;6.376;2024-01-06T03:51:13;1.10;99.90
51793;DHT22;37850;53.178;6.376;2024-01-06T03:53:38;1.10;99.90
51793;DHT22;37850;53.178;6.376;2024-01-06T03:56:05;1.10;99.90
51793;DHT22;37850;53.178;6.376;2024-01-06T03:58:32;1.20;99.90
51793;DHT22;37850;53.178;6.376;2024-01-06T04:00:58;2.00;99.90
51793;DHT22;37850;53.178;6.376;2024-01-06T04:03:23;1.10;99.90
51793;DHT22;37850;53.178;6.376;2024-01-06T04:05:49;1.10;99.90
51793;DHT22;37850;53.178;6.376;2024-01-06T04:08:15;1.10;99.90
51793;DHT22;37850;53.178;6.376;2024-01-06T04:10:40;1.10;99.90
51793;DHT22;37850;53.178;6.376;2024-01-06T04:13:07;1.10;99.90
51793;DHT22;37850;53.178;6.376;2024-01-06T04:15:33;1.10;99.90
51793;DHT22;37850;53.178;6.376;2024-01-06T04:18:02;1.10;99.90
51793;DHT22;37850;53.178;6.376;2024-01-06T04:20:29;1.10;99.90
51793;DHT22;37850;53.178;6.376;2024-01-06T04:22:55;1.10;99.90
51793;DHT22;37850;53.178;6.376;2024-01-06T04:25:21;1.10;99.90
51793;DHT22;37850;53.178;6.376;2024-01-06T04:27:47;1.10;99.90
51793;DHT22;37850;53.178;6.376;2024-01-06T04:30:14;1.10;99.90
51793;DHT22;37850;53.178;6.376;2024-01-06T04:32:41;1.20;99.90
51793;DHT22;37850;53.178;6.376;2024-01-06T04:35:07;1.10;99.90
51793;DHT22;37850;53.178;6.376;2024-01-06T04:37:32;1.60;99.90
51793;DHT22;37850;53.178;6.376;2024-01-06T04:39:58;1.10;99.90
51793;DHT22;37850;53.178;6.376;2024-01-06T04:42:24;1.10;99.90
51793;DHT22;37850;53.178;6.376;2024-01-06T04:44:50;1.20;99.90
51793;DHT22;37850;53.178;6.376;2024-01-06T04:47:16;1.10;99.90
51793;DHT22;37850;53.178;6.376;2024-01-06T04:49:43;1.10;99.90
51793;DHT22;37850;53.178;6.376;2024-01-06T04:52:09;1.10;99.90
51793;DHT22;37850;53.178;6.376;2024-01-06T04:54:35;1.10;99.90
51793;DHT22;37850;53.178;6.376;2024-01-06T04:57:00;1.10;99.90
51793;DHT22;37850;53.178;6.376;2024-01-06T04:59:26;1.20;99.90
51793;DHT22;37850;53.178;6.376;2024-01-06T05:01:53;1.50;99.90
51793;DHT22;37850;53.178;6.376;2024-01-06T05:04:19;1.10;99.90
51793;DHT22;37850;53.178;6.376;2024-01-06T05:06:44;1.10;99.90
51793;DHT22;37850;53.178;6.376;2024-01-06T05:09:10;1.10;99.90
51793;DHT22;37850;53.178;6.376;2024-01-06T05:11:36;1.10;99.90
51793;DHT22;37850;53.178;6.376;2024-01-06T05:14:02;1.10;99.90
51793;DHT22;37850;53.178;6.376;2024-01-06T05:16:28;1.20;99.90
51793;DHT22;37850;53.178;6.376;2024-01-06T05:18:54;1.20;99.90
51793;DHT22;37850;53.178;6.376;2024-01-06T05:21:20;1.20;99.90
51793;DHT22;37850;53.178;6.376;2024-01-06T05:23:46;1.20;99.90
51793;DHT22;37850;53.178;6.376;2024-01-06T05:26:12;1.20;99.90
51793;DHT22;37850;53.178;6.376;2024-01-06T05:28:39;1.20;99.90
51793;DHT22;37850;53.178;6.376;2024-01-06T05:31:05;2.10;99.90
51793;DHT22;37850;53.178;6.376;2024-01-06T05:33:31;1.20;99.90
51793;DHT22;37850;53.178;6.376;2024-01-06T05:35:57;1.20;99.90
51793;DHT22;37850;53.178;6.376;2024-01-06T05:38:23;1.20;99.90
51793;DHT22;37850;53.178;6.376;2024-01-06T05:40:49;1.20;99.90
51793;DHT22;37850;53.178;6.376;2024-01-06T05:43:14;1.20;99.90
51793;DHT22;37850;53.178;6.376;2024-01-06T05:45:40;1.20;99.90
51793;DHT22;37850;53.178;6.376;2024-01-06T05:48:10;1.20;99.90
51793;DHT22;37850;53.178;6.376;2024-01-06T05:50:39;1.20;99.90
51793;DHT22;37850;53.178;6.376;2024-01-06T05:53:06;1.40;99.90
51793;DHT22;37850;53.178;6.376;2024-01-06T05:55:32;1.50;99.90
51793;DHT22;37850;53.178;6.376;2024-01-06T05:57:58;1.20;99.90
51793;DHT22;37850;53.178;6.376;2024-01-06T06:00:23;1.20;99.90
51793;DHT22;37850;53.178;6.376;2024-01-06T06:02:49;1.20;99.90
51793;DHT22;37850;53.178;6.376;2024-01-06T06:05:15;1.20;99.90
51793;DHT22;37850;53.178;6.376;2024-01-06T06:07:41;1.20;99.90
51793;DHT22;37850;53.178;6.376;2024-01-06T06:10:09;1.20;99.90
51793;DHT22;37850;53.178;6.376;2024-01-06T06:12:36;1.20;99.90
51793;DHT22;37850;53.178;6.376;2024-01-06T06:15:02;1.20;99.90
51793;DHT22;37850;53.178;6.376;2024-01-06T06:17:30;1.20;99.90
51793;DHT22;37850;53.178;6.376;2024-01-06T06:19:57;1.20;99.90
51793;DHT22;37850;53.178;6.376;2024-01-06T06:22:23;1.20;99.90
51793;DHT22;37850;53.178;6.376;2024-01-06T06:24:48;1.20;99.90
51793;DHT22;37850;53.178;6.376;2024-01-06T06:27:14;2.30;99.90
51793;DHT22;37850;53.178;6.376;2024-01-06T06:29:40;1.20;99.90
51793;DHT22;37850;53.178;6.376;2024-01-06T06:32:06;1.30;99.90
51793;DHT22;37850;53.178;6.376;2024-01-06T06:34:31;1.20;99.90
51793;DHT22;37850;53.178;6.376;2024-01-06T06:36:57;1.40;99.90
51793;DHT22;37850;53.178;6.376;2024-01-06T06:39:24;1.30;99.90
51793;DHT22;37850;53.178;6.376;2024-01-06T06:41:49;1.30;99.90
51793;DHT22;37850;53.178;6.376;2024-01-06T06:44:15;1.30;99.90
51793;DHT22;37850;53.178;6.376;2024-01-06T06:46:41;1.30;99.90
51793;DHT22;37850;53.178;6.376;2024-01-06T06:49:07;1.30;99.90
51793;DHT22;37850;53.178;6.376;2024-01-06T06:51:33;1.30;99.90
51793;DHT22;37850;53.178;6.376;2024-01-06T06:53:58;1.30;99.90
51793;DHT22;37850;53.178;6.376;2024-01-06T06:56:24;1.80;99.90
51793;DHT22;37850;53.178;6.376;2024-01-06T06:58:53;1.30;99.90
51793;DHT22;37850;53.178;6.376;2024-01-06T07:01:20;1.30;99.90
51793;DHT22;37850;53.178;6.376;2024-01-06T07:03:48;1.30;99.90
51793;DHT22;37850;53.178;6.376;2024-01-06T07:06:15;1.30;99.90
51793;DHT22;37850;53.178;6.376;2024-01-06T07:08:41;1.30;99.90
51793;DHT22;37850;53.178;6.376;2024-01-06T07:11:08;1.30;99.90
51793;DHT22;37850;53.178;6.376;2024-01-06T07:13:34;1.30;99.90
51793;DHT22;37850;53.178;6.376;2024-01-06T07:15:59;1.30;99.90
51793;DHT22;37850;53.178;6.376;2024-01-06T07:18:25;1.30;99.90
51793;DHT22;37850;53.178;6.376;2024-01-06T07:20:51;2.00;99.90
51793;DHT22;37850;53.178;6.376;2024-01-06T07:23:17;2.00;99.90
51793;DHT22;37850;53.178;6.376;2024-01-06T07:25:43;1.30;99.90
51793;DHT22;37850;53.178;6.376;2024-01-06T07:28:08;1.30;99.90
51793;DHT22;37850;53.178;6.376;2024-01-06T07:30:34;1.30;99.90
51793;DHT22;37850;53.178;6.376;2024-01-06T07:33:00;1.40;99.90
51793;DHT22;37850;53.178;6.376;2024-01-06T07:35:26;1.30;99.90
51793;DHT22;37850;53.178;6.376;2024-01-06T07:37:51;1.40;99.90
51793;DHT22;37850;53.178;6.376;2024-01-06T07:40:18;1.30;99.90
51793;DHT22;37850;53.178;6.376;2024-01-06T07:42:44;1.30;99.90
51793;DHT22;37850;53.178;6.376;2024-01-06T07:45:10;1.30;99.90
51793;DHT22;37850;53.178;6.376;2024-01-06T07:47:36;1.70;99.90
51793;DHT22;37850;53.178;6.376;2024-01-06T07:50:02;1.30;99.90
51793;DHT22;37850;53.178;6.376;2024-01-06T07:52:30;1.40;99.90
51793;DHT22;37850;53.178;6.376;2024-01-06T07:54:56;1.40;99.90
51793;DHT22;37850;53.178;6.376;2024-01-06T07:57:21;1.30;99.90
51793;DHT22;37850;53.178;6.376;2024-01-06T07:59:47;1.80;99.90
51793;DHT22;37850;53.178;6.376;2024-01-06T08:02:13;1.40;99.90
51793;DHT22;37850;53.178;6.376;2024-01-06T08:04:38;1.80;99.90
51793;DHT22;37850;53.178;6.376;2024-01-06T08:07:04;1.40;99.90
51793;DHT22;37850;53.178;6.376;2024-01-06T08:09:29;2.40;99.90
51793;DHT22;37850;53.178;6.376;2024-01-06T08:11:55;1.40;99.90
51793;DHT22;37850;53.178;6.376;2024-01-06T08:14:21;1.40;99.90
51793;DHT22;37850;53.178;6.376;2024-01-06T08:16:47;1.40;99.90
51793;DHT22;37850;53.178;6.376;2024-01-06T08:19:13;1.40;99.90
51793;DHT22;37850;53.178;6.376;2024-01-06T08:21:39;1.40;99.90
51793;DHT22;37850;53.178;6.376;2024-01-06T08:24:04;1.40;99.90
51793;DHT22;37850;53.178;6.376;2024-01-06T08:26:31;1.40;99.90
51793;DHT22;37850;53.178;6.376;2024-01-06T08:28:57;1.40;99.90
51793;DHT22;37850;53.178;6.376;2024-01-06T08:31:22;1.40;99.90
51793;DHT22;37850;53.178;6.376;2024-01-06T08:33:48;1.40;99.90
51793;DHT22;37850;53.178;6.376;2024-01-06T08:36:14;1.40;99.90
51793;DHT22;37850;53.178;6.376;2024-01-06T08:38:40;1.40;99.90
51793;DHT22;37850;53.178;6.376;2024-01-06T08:41:05;1.40;99.90
51793;DHT22;37850;53.178;6.376;2024-01-06T08:43:31;1.40;99.90
51793;DHT22;37850;53.178;6.376;2024-01-06T08:45:57;1.40;99.90
51793;DHT22;37850;53.178;6.376;2024-01-06T08:48:22;1.50;99.90
51793;DHT22;37850;53.178;6.376;2024-01-06T08:50:48;1.40;99.90
51793;DHT22;37850;53.178;6.376;2024-01-06T08:53:14;2.10;99.90
51793;DHT22;37850;53.178;6.376;2024-01-06T08:55:41;1.50;99.90
51793;DHT22;37850;53.178;6.376;2024-01-06T08:58:06;1.50;99.90
51793;DHT22;37850;53.178;6.376;2024-01-06T09:00:32;1.50;99.90
51793;DHT22;37850;53.178;6.376;2024-01-06T09:02:58;1.50;99.90
51793;DHT22;37850;53.178;6.376;2024-01-06T09:05:23;1.40;99.90
51793;DHT22;37850;53.178;6.376;2024-01-06T09:07:49;1.50;99.90
51793;DHT22;37850;53.178;6.376;2024-01-06T09:10:18;1.50;99.90
51793;DHT22;37850;53.178;6.376;2024-01-06T09:12:45;1.50;99.90
51793;DHT22;37850;53.178;6.376;2024-01-06T09:15:11;1.50;99.90
51793;DHT22;37850;53.178;6.376;2024-01-06T09:17:36;1.50;99.90
51793;DHT22;37850;53.178;6.376;2024-01-06T09:20:02;1.50;99.90
51793;DHT22;37850;53.178;6.376;2024-01-06T09:22:28;1.50;99.90
51793;DHT22;37850;53.178;6.376;2024-01-06T09:24:54;1.50;99.90
51793;DHT22;37850;53.178;6.376;2024-01-06T09:27:20;1.50;99.90
51793;DHT22;37850;53.178;6.376;2024-01-06T09:29:46;1.50;99.90
51793;DHT22;37850;53.178;6.376;2024-01-06T09:32:13;1.60;99.90
51793;DHT22;37850;53.178;6.376;2024-01-06T09:34:39;1.60;99.90
51793;DHT22;37850;53.178;6.376;2024-01-06T09:37:04;1.60;99.90
51793;DHT22;37850;53.178;6.376;2024-01-06T09:39:30;1.60;99.90
51793;DHT22;37850;53.178;6.376;2024-01-06T09:41:57;1.60;99.90
51793;DHT22;37850;53.178;6.376;2024-01-06T09:44:23;1.60;99.90
51793;DHT22;37850;53.178;6.376;2024-01-06T09:46:50;1.60;99.90
51793;DHT22;37850;53.178;6.376;2024-01-06T09:49:19;1.60;99.90
51793;DHT22;37850;53.178;6.376;2024-01-06T09:51:49;1.60;99.90
51793;DHT22;37850;53.178;6.376;2024-01-06T09:54:23;1.60;99.90
51793;DHT22;37850;53.178;6.376;2024-01-06T09:56:52;1.70;99.90
51793;DHT22;37850;53.178;6.376;2024-01-06T09:59:18;1.60;99.90
51793;DHT22;37850;53.178;6.376;2024-01-06T10:01:45;2.80;99.90
51793;DHT22;37850;53.178;6.376;2024-01-06T10:04:11;2.00;99.90
51793;DHT22;37850;53.178;6.376;2024-01-06T10:06:36;1.60;99.90
51793;DHT22;37850;53.178;6.376;2024-01-06T10:09:02;1.60;99.90
51793;DHT22;37850;53.178;6.376;2024-01-06T10:11:30;1.60;99.90
51793;DHT22;37850;53.178;6.376;2024-01-06T10:13:56;1.60;99.90
51793;DHT22;37850;53.178;6.376;2024-01-06T10:16:21;1.70;99.90
51793;DHT22;37850;53.178;6.376;2024-01-06T10:18:48;1.60;99.90
51793;DHT22;37850;53.178;6.376;2024-01-06T10:21:13;1.90;99.90
51793;DHT22;37850;53.178;6.376;2024-01-06T10:23:43;1.60;99.90
51793;DHT22;37850;53.178;6.376;2024-01-06T10:26:13;1.70;99.90
51793;DHT22;37850;53.178;6.376;2024-01-06T10:28:39;1.70;99.90
51793;DHT22;37850;53.178;6.376;2024-01-06T10:31:08;1.70;99.90
51793;DHT22;37850;53.178;6.376;2024-01-06T10:33:33;1.70;99.90
51793;DHT22;37850;53.178;6.376;2024-01-06T10:36:00;1.70;99.90
51793;DHT22;37850;53.178;6.376;2024-01-06T10:38:26;1.70;99.90
51793;DHT22;37850;53.178;6.376;2024-01-06T10:41:00;1.70;99.90
51793;DHT22;37850;53.178;6.376;2024-01-06T10:43:27;1.80;99.90
51793;DHT22;37850;53.178;6.376;2024-01-06T10:45:56;1.70;99.90
51793;DHT22;37850;53.178;6.376;2024-01-06T10:48:26;1.70;99.90
51793;DHT22;37850;53.178;6.376;2024-01-06T10:50:55;1.80;99.90
51793;DHT22;37850;53.178;6.376;2024-01-06T10:53:21;1.90;99.90
51793;DHT22;37850;53.178;6.376;2024-01-06T10:55:49;2.30;99.90
51793;DHT22;37850;53.178;6.376;2024-01-06T10:58:17;1.90;99.90
51793;DHT22;37850;53.178;6.376;2024-01-06T11:00:43;1.90;99.90
51793;DHT22;37850;53.178;6.376;2024-01-06T11:03:09;3.00;99.90
51793;DHT22;37850;53.178;6.376;2024-01-06T11:05:36;2.20;99.90
51793;DHT22;37850;53.178;6.376;2024-01-06T11:08:04;2.00;99.90
51793;DHT22;37850;53.178;6.376;2024-01-06T11:10:30;1.90;99.90
51793;DHT22;37850;53.178;6.376;2024-01-06T11:13:10;2.00;99.90
51793;DHT22;37850;53.178;6.376;2024-01-06T11:15:49;1.90;99.90
51793;DHT22;37850;53.178;6.376;2024-01-06T11:18:35;1.90;99.90
51793;DHT22;37850;53.178;6.376;2024-01-06T11:21:18;2.00;99.90
51793;DHT22;37850;53.178;6.376;2024-01-06T11:24:07;2.00;99.90
51793;DHT22;37850;53.178;6.376;2024-01-06T11:26:34;2.00;99.90
51793;DHT22;37850;53.178;6.376;2024-01-06T11:29:00;2.00;99.90
51793;DHT22;37850;53.178;6.376;2024-01-06T11:31:32;2.00;99.90
51793;DHT22;37850;53.178;6.376;2024-01-06T11:34:15;2.00;99.90
51793;DHT22;37850;53.178;6.376;2024-01-06T11:36:43;2.00;99.90
51793;DHT22;37850;53.178;6.376;2024-01-06T11:39:37;2.00;99.90
51793;DHT22;37850;53.178;6.376;2024-01-06T11:42:04;2.00;99.90
51793;DHT22;37850;53.178;6.376;2024-01-06T11:44:34;2.00;99.90
51793;DHT22;37850;53.178;6.376;2024-01-06T11:47:00;2.00;99.90
51793;DHT22;37850;53.178;6.376;2024-01-06T11:49:29;2.00;99.90
51793;DHT22;37850;53.178;6.376;2024-01-06T11:51:56;1.90;99.90
51793;DHT22;37850;53.178;6.376;2024-01-06T11:54:22;2.00;99.90
51793;DHT22;37850;53.178;6.376;2024-01-06T11:56:48;1.90;99.90
51793;DHT22;37850;53.178;6.376;2024-01-06T11:59:14;2.10;99.90
51793;DHT22;37850;53.178;6.376;2024-01-06T12:01:40;1.90;99.90
51793;DHT22;37850;53.178;6.376;2024-01-06T12:04:06;1.90;99.90
51793;DHT22;37850;53.178;6.376;2024-01-06T12:06:33;2.40;99.90
51793;DHT22;37850;53.178;6.376;2024-01-06T12:09:07;1.90;99.90
51793;DHT22;37850;53.178;6.376;2024-01-06T12:11:32;1.90;99.90
51793;DHT22;37850;53.178;6.376;2024-01-06T12:13:58;1.90;99.90
51793;DHT22;37850;53.178;6.376;2024-01-06T12:16:24;1.90;99.90
51793;DHT22;37850;53.178;6.376;2024-01-06T12:18:54;1.90;99.90
51793;DHT22;37850;53.178;6.376;2024-01-06T12:21:24;1.90;99.90
51793;DHT22;37850;53.178;6.376;2024-01-06T12:23:49;1.80;99.90
51793;DHT22;37850;53.178;6.376;2024-01-06T12:26:17;1.80;99.90
51793;DHT22;37850;53.178;6.376;2024-01-06T12:28:48;2.90;99.90
51793;DHT22;37850;53.178;6.376;2024-01-06T12:31:14;1.80;99.90
51793;DHT22;37850;53.178;6.376;2024-01-06T12:33:41;1.80;99.90
51793;DHT22;37850;53.178;6.376;2024-01-06T12:36:07;1.80;99.90
51793;DHT22;37850;53.178;6.376;2024-01-06T12:38:34;1.80;99.90
51793;DHT22;37850;53.178;6.376;2024-01-06T12:41:00;1.80;99.90
51793;DHT22;37850;53.178;6.376;2024-01-06T12:43:26;1.80;99.90
51793;DHT22;37850;53.178;6.376;2024-01-06T12:45:53;1.70;99.90
51793;DHT22;37850;53.178;6.376;2024-01-06T12:48:19;1.90;99.90
51793;DHT22;37850;53.178;6.376;2024-01-06T12:50:44;1.70;99.90
51793;DHT22;37850;53.178;6.376;2024-01-06T12:53:10;1.80;99.90
51793;DHT22;37850;53.178;6.376;2024-01-06T12:55:38;1.70;99.90
51793;DHT22;37850;53.178;6.376;2024-01-06T12:58:05;1.70;99.90
51793;DHT22;37850;53.178;6.376;2024-01-06T13:00:31;1.70;99.90
51793;DHT22;37850;53.178;6.376;2024-01-06T13:02:56;1.70;99.90
51793;DHT22;37850;53.178;6.376;2024-01-06T13:05:22;1.70;99.90
51793;DHT22;37850;53.178;6.376;2024-01-06T13:07:48;1.90;99.90
51793;DHT22;37850;53.178;6.376;2024-01-06T13:10:15;1.60;99.90
51793;DHT22;37850;53.178;6.376;2024-01-06T13:12:40;1.60;99.90
51793;DHT22;37850;53.178;6.376;2024-01-06T13:15:07;1.60;99.90
51793;DHT22;37850;53.178;6.376;2024-01-06T13:17:37;1.60;99.90
51793;DHT22;37850;53.178;6.376;2024-01-06T13:20:04;1.60;99.90
51793;DHT22;37850;53.178;6.376;2024-01-06T13:22:30;1.60;99.90
51793;DHT22;37850;53.178;6.376;2024-01-06T13:24:56;2.50;99.90
51793;DHT22;37850;53.178;6.376;2024-01-06T13:27:22;1.60;99.90
51793;DHT22;37850;53.178;6.376;2024-01-06T13:29:48;1.60;99.90
51793;DHT22;37850;53.178;6.376;2024-01-06T13:32:14;1.60;99.90
51793;DHT22;37850;53.178;6.376;2024-01-06T13:34:41;1.50;99.90
51793;DHT22;37850;53.178;6.376;2024-01-06T13:37:10;1.60;99.90
51793;DHT22;37850;53.178;6.376;2024-01-06T13:39:36;1.50;99.90
51793;DHT22;37850;53.178;6.376;2024-01-06T13:42:02;1.50;99.90
51793;DHT22;37850;53.178;6.376;2024-01-06T13:44:30;1.50;99.90
51793;DHT22;37850;53.178;6.376;2024-01-06T13:46:56;1.50;99.90
51793;DHT22;37850;53.178;6.376;2024-01-06T13:49:22;1.50;99.90
51793;DHT22;37850;53.178;6.376;2024-01-06T13:51:49;1.50;99.90
51793;DHT22;37850;53.178;6.376;2024-01-06T13:54:15;1.50;99.90
51793;DHT22;37850;53.178;6.376;2024-01-06T13:56:40;1.50;99.90
51793;DHT22;37850;53.178;6.376;2024-01-06T13:59:07;1.40;99.90
51793;DHT22;37850;53.178;6.376;2024-01-06T14:01:33;1.50;99.90
51793;DHT22;37850;53.178;6.376;2024-01-06T14:03:58;1.50;99.90
51793;DHT22;37850;53.178;6.376;2024-01-06T14:06:26;1.50;99.90
51793;DHT22;37850;53.178;6.376;2024-01-06T14:08:56;1.40;99.90
51793;DHT22;37850;53.178;6.376;2024-01-06T14:11:22;1.40;99.90
51793;DHT22;37850;53.178;6.376;2024-01-06T14:13:48;1.30;99.90
51793;DHT22;37850;53.178;6.376;2024-01-06T14:16:15;1.40;99.90
51793;DHT22;37850;53.178;6.376;2024-01-06T14:18:41;1.50;99.90
51793;DHT22;37850;53.178;6.376;2024-01-06T14:21:09;1.40;99.90
51793;DHT22;37850;53.178;6.376;2024-01-06T14:23:35;1.30;99.90
51793;DHT22;37850;53.178;6.376;2024-01-06T14:26:02;1.40;99.90
51793;DHT22;37850;53.178;6.376;2024-01-06T14:28:27;1.30;99.90
51793;DHT22;37850;53.178;6.376;2024-01-06T14:30:53;1.30;99.90
51793;DHT22;37850;53.178;6.376;2024-01-06T14:33:19;1.30;99.90
51793;DHT22;37850;53.178;6.376;2024-01-06T14:35:45;1.30;99.90
51793;DHT22;37850;53.178;6.376;2024-01-06T14:38:12;1.30;99.90
51793;DHT22;37850;53.178;6.376;2024-01-06T14:40:38;1.30;99.90
51793;DHT22;37850;53.178;6.376;2024-01-06T14:43:04;1.30;99.90
51793;DHT22;37850;53.178;6.376;2024-01-06T14:45:30;1.30;99.90
51793;DHT22;37850;53.178;6.376;2024-01-06T14:47:57;1.50;99.90
51793;DHT22;37850;53.178;6.376;2024-01-06T14:50:22;1.30;99.90
51793;DHT22;37850;53.178;6.376;2024-01-06T14:52:48;1.30;99.90
51793;DHT22;37850;53.178;6.376;2024-01-06T14:55:15;2.30;99.90
51793;DHT22;37850;53.178;6.376;2024-01-06T14:57:40;1.20;99.90
51793;DHT22;37850;53.178;6.376;2024-01-06T15:00:07;1.20;99.90
51793;DHT22;37850;53.178;6.376;2024-01-06T15:02:39;1.20;99.90
51793;DHT22;37850;53.178;6.376;2024-01-06T15:05:05;1.20;99.90
51793;DHT22;37850;53.178;6.376;2024-01-06T15:07:32;1.20;99.90
51793;DHT22;37850;53.178;6.376;2024-01-06T15:10:00;1.20;99.90
51793;DHT22;37850;53.178;6.376;2024-01-06T15:12:27;1.20;99.90
51793;DHT22;37850;53.178;6.376;2024-01-06T15:14:53;1.20;99.90
51793;DHT22;37850;53.178;6.376;2024-01-06T15:17:19;1.10;99.90
51793;DHT22;37850;53.178;6.376;2024-01-06T15:19:48;1.10;99.90
51793;DHT22;37850;53.178;6.376;2024-01-06T15:22:14;1.10;99.90
51793;DHT22;37850;53.178;6.376;2024-01-06T15:24:41;1.10;99.90
51793;DHT22;37850;53.178;6.376;2024-01-06T15:27:08;1.10;99.90
51793;DHT22;37850;53.178;6.376;2024-01-06T15:29:34;1.10;99.90
51793;DHT22;37850;53.178;6.376;2024-01-06T15:32:00;1.10;99.90
51793;DHT22;37850;53.178;6.376;2024-01-06T15:34:26;1.00;99.90
51793;DHT22;37850;53.178;6.376;2024-01-06T15:36:52;1.10;99.90
51793;DHT22;37850;53.178;6.376;2024-01-06T15:39:17;1.20;99.90
51793;DHT22;37850;53.178;6.376;2024-01-06T15:41:43;1.00;99.90